Terminal Aerodrome Forecast
Issued by NWS

Home | Current Version | Previous Version | Text Only | Print | Product List | Glossary On
Versions: 1 2 3 4 5 6 7 8 9 10 11 12
000
FTUS44 KOUN 090520
TAFCSM
TAF
KCSM 090520Z 0906/1006 05006KT P6SM OVC060
     FM090700 11006KT P6SM BKN070
     FM091300 17014G20KT P6SM BKN060
     FM100300 15011KT P6SM OVC100=

USA.gov is the U.S. government's official web portal to all federal, state and local government web resources and services.